EWG1B EDDC-EDDS
Flight info
| Callsign | EWG1B |
|---|---|
| Flight time | 0h 55m |
| Altitude | 30000 |
| Route | ABKIS4E ABKIS Z715 ANELA N869 DKB Z818 GEBNO T726 LBU |
| Aircraft | A320/M-SDE3FGHIRWY/LB1 |
Departure
| Time | 2026-05-07 19:41 |
|---|---|
| Airport | Dresden Airport (EDDC) |
Arrival
| Time | 2026-05-07 20:37 |
|---|---|
| Airport | Stuttgart Airport (EDDS) |
| Time | Latitude | Longitude | Altitude | Speed | Heading |
|---|---|---|---|---|---|
| 2026-05-07 19:19 | 51.12659 | 13.76483 | 749 ft | 0 kts | 220° |
| 2026-05-07 19:25 | 51.12679 | 13.76510 | 752 ft | 5 kts | 223° |
| 2026-05-07 19:26 | 51.12700 | 13.76540 | 749 ft | 4 kts | 221° |
| 2026-05-07 19:26 | 51.12716 | 13.76563 | 749 ft | 2 kts | 214° |
| 2026-05-07 19:26 | 51.12719 | 13.76567 | 749 ft | 0 kts | 207° |
| 2026-05-07 19:26 | 51.12724 | 13.76570 | 749 ft | 2 kts | 228° |
| 2026-05-07 19:27 | 51.12730 | 13.76594 | 748 ft | 2 kts | 300° |
| 2026-05-07 19:27 | 51.12729 | 13.76598 | 748 ft | 0 kts | 306° |
| 2026-05-07 19:28 | 51.12730 | 13.76595 | 748 ft | 3 kts | 306° |
| 2026-05-07 19:28 | 51.12773 | 13.76488 | 750 ft | 18 kts | 304° |
| 2026-05-07 19:28 | 51.12739 | 13.76325 | 749 ft | 18 kts | 218° |
| 2026-05-07 19:29 | 51.12652 | 13.76206 | 749 ft | 15 kts | 221° |
| 2026-05-07 19:29 | 51.12552 | 13.76063 | 754 ft | 24 kts | 224° |
| 2026-05-07 19:29 | 51.12414 | 13.75875 | 764 ft | 24 kts | 221° |
| 2026-05-07 19:29 | 51.12397 | 13.75851 | 764 ft | 1 kts | 221° |
| 2026-05-07 19:30 | 51.12390 | 13.75841 | 764 ft | 0 kts | 221° |
| 2026-05-07 19:34 | 51.12368 | 13.75751 | 765 ft | 17 kts | 283° |
| 2026-05-07 19:34 | 51.12385 | 13.75691 | 765 ft | 0 kts | 296° |
| 2026-05-07 19:38 | 51.12401 | 13.75642 | 765 ft | 22 kts | 298° |
| 2026-05-07 19:38 | 51.12506 | 13.75521 | 769 ft | 16 kts | 22° |
| 2026-05-07 19:39 | 51.12572 | 13.75615 | 766 ft | 0 kts | 43° |
| 2026-05-07 19:40 | 51.12581 | 13.75628 | 766 ft | 13 kts | 41° |
| 2026-05-07 19:40 | 51.12882 | 13.76038 | 748 ft | 98 kts | 41° |
| 2026-05-07 19:41 | 51.13568 | 13.76965 | 754 ft | 157 kts | 39° |
| 2026-05-07 19:41 | 51.14415 | 13.78133 | 1460 ft | 162 kts | 40° |
| 2026-05-07 19:41 | 51.15263 | 13.79333 | 2318 ft | 166 kts | 40° |
| 2026-05-07 19:41 | 51.16173 | 13.80616 | 2749 ft | 185 kts | 40° |
| 2026-05-07 19:42 | 51.17200 | 13.82051 | 3070 ft | 208 kts | 40° |
| 2026-05-07 19:42 | 51.18360 | 13.83659 | 3483 ft | 233 kts | 40° |
| 2026-05-07 19:42 | 51.19585 | 13.85535 | 4000 ft | 255 kts | 54° |
| 2026-05-07 19:42 | 51.20156 | 13.88250 | 4788 ft | 267 kts | 85° |
| 2026-05-07 19:43 | 51.20067 | 13.91239 | 5690 ft | 274 kts | 102° |
| 2026-05-07 19:43 | 51.19217 | 13.93946 | 6538 ft | 279 kts | 131° |
| 2026-05-07 19:43 | 51.17804 | 13.96063 | 6880 ft | 279 kts | 139° |
| 2026-05-07 19:43 | 51.16392 | 13.98186 | 6979 ft | 279 kts | 136° |
| 2026-05-07 19:44 | 51.15027 | 14.00376 | 7000 ft | 278 kts | 135° |
| 2026-05-07 19:44 | 51.13685 | 14.02593 | 7003 ft | 278 kts | 135° |
| 2026-05-07 19:44 | 51.12309 | 14.04814 | 7535 ft | 282 kts | 141° |
| 2026-05-07 19:44 | 51.10621 | 14.06355 | 8517 ft | 281 kts | 163° |
| 2026-05-07 19:45 | 51.08694 | 14.06722 | 9458 ft | 281 kts | 187° |
| 2026-05-07 19:45 | 51.06836 | 14.05807 | 10352 ft | 283 kts | 211° |
| 2026-05-07 19:45 | 51.05338 | 14.03742 | 10933 ft | 296 kts | 232° |
| 2026-05-07 19:45 | 51.04124 | 14.00928 | 11213 ft | 320 kts | 236° |
| 2026-05-07 19:46 | 51.02850 | 13.97879 | 11483 ft | 342 kts | 236° |
| 2026-05-07 19:46 | 51.01517 | 13.94693 | 12070 ft | 350 kts | 236° |
| 2026-05-07 19:46 | 51.00148 | 13.91453 | 12790 ft | 356 kts | 236° |
| 2026-05-07 19:46 | 50.98753 | 13.88175 | 13531 ft | 360 kts | 236° |
| 2026-05-07 19:47 | 50.97341 | 13.84868 | 14238 ft | 364 kts | 236° |
| 2026-05-07 19:47 | 50.95917 | 13.81537 | 14937 ft | 366 kts | 236° |
| 2026-05-07 19:47 | 50.94478 | 13.78181 | 15589 ft | 370 kts | 236° |
| 2026-05-07 19:47 | 50.93017 | 13.74783 | 16209 ft | 374 kts | 236° |
| 2026-05-07 19:48 | 50.91545 | 13.71360 | 16870 ft | 377 kts | 237° |
| 2026-05-07 19:48 | 50.90061 | 13.67918 | 17540 ft | 380 kts | 236° |
| 2026-05-07 19:48 | 50.88564 | 13.64443 | 18134 ft | 384 kts | 236° |
| 2026-05-07 19:48 | 50.87072 | 13.60978 | 18661 ft | 388 kts | 237° |
| 2026-05-07 19:49 | 50.85526 | 13.57393 | 18979 ft | 390 kts | 237° |
| 2026-05-07 19:49 | 50.83995 | 13.53852 | 19051 ft | 390 kts | 236° |
| 2026-05-07 19:49 | 50.82461 | 13.50306 | 19116 ft | 393 kts | 237° |
| 2026-05-07 19:49 | 50.80915 | 13.46731 | 19688 ft | 395 kts | 236° |
| 2026-05-07 19:50 | 50.79356 | 13.43135 | 20234 ft | 398 kts | 237° |
| 2026-05-07 19:50 | 50.77786 | 13.39528 | 20762 ft | 400 kts | 237° |
| 2026-05-07 19:50 | 50.76199 | 13.35897 | 21281 ft | 403 kts | 237° |
| 2026-05-07 19:50 | 50.74598 | 13.32236 | 21782 ft | 406 kts | 237° |
| 2026-05-07 19:51 | 50.72986 | 13.28546 | 22278 ft | 409 kts | 237° |
| 2026-05-07 19:51 | 50.71384 | 13.24883 | 22761 ft | 413 kts | 237° |
| 2026-05-07 19:51 | 50.69746 | 13.21140 | 23245 ft | 416 kts | 237° |
| 2026-05-07 19:51 | 50.68098 | 13.17377 | 23680 ft | 419 kts | 237° |
| 2026-05-07 19:52 | 50.66430 | 13.13575 | 23979 ft | 425 kts | 238° |
| 2026-05-07 19:52 | 50.64740 | 13.09730 | 24327 ft | 428 kts | 238° |
| 2026-05-07 19:52 | 50.63065 | 13.05849 | 24706 ft | 429 kts | 241° |
| 2026-05-07 19:52 | 50.61650 | 13.01700 | 25086 ft | 430 kts | 245° |
| 2026-05-07 19:53 | 50.60282 | 12.97509 | 25482 ft | 431 kts | 245° |
| 2026-05-07 19:53 | 50.58906 | 12.93316 | 25947 ft | 431 kts | 245° |
| 2026-05-07 19:53 | 50.57526 | 12.89115 | 26367 ft | 433 kts | 245° |
| 2026-05-07 19:53 | 50.56141 | 12.84898 | 26737 ft | 435 kts | 245° |
| 2026-05-07 19:54 | 50.54746 | 12.80660 | 27103 ft | 437 kts | 245° |
| 2026-05-07 19:54 | 50.53346 | 12.76414 | 27456 ft | 439 kts | 245° |
| 2026-05-07 19:54 | 50.51938 | 12.72150 | 27792 ft | 441 kts | 245° |
| 2026-05-07 19:54 | 50.50521 | 12.67869 | 28139 ft | 442 kts | 245° |
| 2026-05-07 19:55 | 50.49098 | 12.63575 | 28483 ft | 444 kts | 245° |
| 2026-05-07 19:55 | 50.47663 | 12.59262 | 28783 ft | 447 kts | 244° |
| 2026-05-07 19:55 | 50.46215 | 12.54924 | 29029 ft | 450 kts | 244° |
| 2026-05-07 19:55 | 50.44756 | 12.50564 | 29312 ft | 453 kts | 244° |
| 2026-05-07 19:56 | 50.43290 | 12.46170 | 29609 ft | 455 kts | 244° |
| 2026-05-07 19:56 | 50.41820 | 12.41765 | 29930 ft | 457 kts | 244° |
| 2026-05-07 19:56 | 50.40346 | 12.37358 | 30073 ft | 454 kts | 244° |
| 2026-05-07 19:56 | 50.38882 | 12.32995 | 30076 ft | 449 kts | 244° |
| 2026-05-07 19:57 | 50.35967 | 12.24354 | 30077 ft | 447 kts | 244° |
| 2026-05-07 19:57 | 50.32754 | 12.16000 | 30081 ft | 449 kts | 238° |
| 2026-05-07 19:58 | 50.29224 | 12.07942 | 30083 ft | 449 kts | 237° |
| 2026-05-07 19:58 | 50.25717 | 11.99939 | 30068 ft | 449 kts | 238° |
| 2026-05-07 19:59 | 50.22404 | 11.91698 | 30081 ft | 448 kts | 240° |
| 2026-05-07 19:59 | 50.19187 | 11.83390 | 30088 ft | 447 kts | 237° |
| 2026-05-07 20:00 | 50.15130 | 11.76025 | 30083 ft | 449 kts | 228° |
| 2026-05-07 20:00 | 50.10846 | 11.68942 | 30080 ft | 448 kts | 228° |
| 2026-05-07 20:01 | 50.06549 | 11.61875 | 29739 ft | 449 kts | 227° |
| 2026-05-07 20:01 | 50.04386 | 11.58391 | 29328 ft | 445 kts | 227° |
| 2026-05-07 20:01 | 50.02214 | 11.54963 | 28317 ft | 445 kts | 226° |
| 2026-05-07 20:02 | 50.00021 | 11.51551 | 27793 ft | 448 kts | 226° |
| 2026-05-07 20:02 | 49.97804 | 11.48123 | 27193 ft | 451 kts | 226° |
| 2026-05-07 20:02 | 49.95577 | 11.44681 | 26626 ft | 453 kts | 226° |
| 2026-05-07 20:02 | 49.93320 | 11.41269 | 26059 ft | 454 kts | 222° |
| 2026-05-07 20:03 | 49.90826 | 11.38245 | 25502 ft | 456 kts | 217° |
| 2026-05-07 20:03 | 49.88273 | 11.35352 | 24957 ft | 453 kts | 217° |
| 2026-05-07 20:03 | 49.85736 | 11.32475 | 24416 ft | 450 kts | 217° |
| 2026-05-07 20:03 | 49.83251 | 11.29656 | 23905 ft | 446 kts | 217° |
| 2026-05-07 20:04 | 49.80759 | 11.26837 | 23342 ft | 443 kts | 217° |
| 2026-05-07 20:04 | 49.78280 | 11.24040 | 22739 ft | 439 kts | 218° |
| 2026-05-07 20:04 | 49.75964 | 11.20999 | 22140 ft | 434 kts | 226° |
| 2026-05-07 20:04 | 49.73878 | 11.17660 | 21561 ft | 430 kts | 227° |
| 2026-05-07 20:05 | 49.71809 | 11.14335 | 20985 ft | 427 kts | 227° |
| 2026-05-07 20:05 | 49.69758 | 11.11054 | 20429 ft | 423 kts | 227° |
| 2026-05-07 20:05 | 49.67715 | 11.07796 | 20119 ft | 421 kts | 227° |
| 2026-05-07 20:05 | 49.65682 | 11.04555 | 20060 ft | 420 kts | 227° |
| 2026-05-07 20:06 | 49.63650 | 11.01318 | 20084 ft | 420 kts | 227° |
| 2026-05-07 20:06 | 49.61616 | 10.98076 | 20082 ft | 420 kts | 227° |
| 2026-05-07 20:06 | 49.59587 | 10.94846 | 20082 ft | 420 kts | 227° |
| 2026-05-07 20:06 | 49.57556 | 10.91615 | 20083 ft | 420 kts | 227° |
| 2026-05-07 20:07 | 49.55522 | 10.88388 | 20080 ft | 420 kts | 227° |
| 2026-05-07 20:07 | 49.53488 | 10.85166 | 20082 ft | 420 kts | 227° |
| 2026-05-07 20:07 | 49.51454 | 10.81947 | 20084 ft | 420 kts | 227° |
| 2026-05-07 20:07 | 49.49420 | 10.78733 | 20084 ft | 420 kts | 227° |
| 2026-05-07 20:08 | 49.47380 | 10.75517 | 20097 ft | 419 kts | 227° |
| 2026-05-07 20:08 | 49.45344 | 10.72313 | 20099 ft | 418 kts | 227° |
| 2026-05-07 20:08 | 49.43307 | 10.69110 | 20096 ft | 418 kts | 227° |
| 2026-05-07 20:08 | 49.41273 | 10.65916 | 20100 ft | 418 kts | 227° |
| 2026-05-07 20:09 | 49.39253 | 10.62707 | 20098 ft | 418 kts | 228° |
| 2026-05-07 20:09 | 49.37252 | 10.59479 | 20097 ft | 418 kts | 228° |
| 2026-05-07 20:09 | 49.35258 | 10.56236 | 20101 ft | 418 kts | 229° |
| 2026-05-07 20:10 | 49.31228 | 10.49837 | 19688 ft | 414 kts | 227° |
| 2026-05-07 20:10 | 49.29193 | 10.46727 | 19204 ft | 413 kts | 226° |
| 2026-05-07 20:10 | 49.27155 | 10.43649 | 18683 ft | 410 kts | 226° |
| 2026-05-07 20:10 | 49.25164 | 10.40653 | 18227 ft | 404 kts | 226° |
| 2026-05-07 20:11 | 49.23168 | 10.37640 | 18070 ft | 402 kts | 227° |
| 2026-05-07 20:11 | 49.21189 | 10.34614 | 18116 ft | 403 kts | 227° |
| 2026-05-07 20:11 | 49.19222 | 10.31560 | 18101 ft | 403 kts | 227° |
| 2026-05-07 20:11 | 49.17405 | 10.28326 | 18096 ft | 400 kts | 237° |
| 2026-05-07 20:12 | 49.16062 | 10.24620 | 18092 ft | 398 kts | 248° |
| 2026-05-07 20:12 | 49.15238 | 10.20592 | 18096 ft | 397 kts | 259° |
| 2026-05-07 20:12 | 49.14960 | 10.16397 | 18095 ft | 398 kts | 270° |
| 2026-05-07 20:12 | 49.15199 | 10.12183 | 18083 ft | 399 kts | 277° |
| 2026-05-07 20:13 | 49.15534 | 10.07980 | 18081 ft | 399 kts | 276° |
| 2026-05-07 20:13 | 49.15862 | 10.03767 | 18083 ft | 399 kts | 276° |
| 2026-05-07 20:13 | 49.16186 | 9.99563 | 18087 ft | 399 kts | 276° |
| 2026-05-07 20:13 | 49.16380 | 9.95340 | 18082 ft | 399 kts | 268° |
| 2026-05-07 20:14 | 49.16071 | 9.91126 | 17575 ft | 399 kts | 259° |
| 2026-05-07 20:14 | 49.15236 | 9.87039 | 16356 ft | 408 kts | 250° |
| 2026-05-07 20:14 | 49.13953 | 9.83280 | 15819 ft | 398 kts | 235° |
| 2026-05-07 20:14 | 49.12039 | 9.80191 | 15567 ft | 396 kts | 219° |
| 2026-05-07 20:15 | 49.09764 | 9.77914 | 15317 ft | 396 kts | 213° |
| 2026-05-07 20:15 | 49.07410 | 9.75754 | 15062 ft | 394 kts | 212° |
| 2026-05-07 20:15 | 49.05048 | 9.73629 | 14822 ft | 394 kts | 211° |
| 2026-05-07 20:15 | 49.02661 | 9.71593 | 14574 ft | 392 kts | 210° |
| 2026-05-07 20:16 | 49.00271 | 9.69563 | 14328 ft | 392 kts | 210° |
| 2026-05-07 20:16 | 48.97892 | 9.67540 | 14088 ft | 391 kts | 210° |
| 2026-05-07 20:16 | 48.95518 | 9.65516 | 13615 ft | 391 kts | 210° |
| 2026-05-07 20:16 | 48.93154 | 9.63498 | 12784 ft | 385 kts | 210° |
| 2026-05-07 20:17 | 48.90868 | 9.61554 | 11982 ft | 368 kts | 210° |
| 2026-05-07 20:17 | 48.88675 | 9.59707 | 11198 ft | 353 kts | 210° |
| 2026-05-07 20:17 | 48.86560 | 9.57945 | 10435 ft | 340 kts | 210° |
| 2026-05-07 20:17 | 48.84519 | 9.56251 | 9656 ft | 329 kts | 210° |
| 2026-05-07 20:18 | 48.82512 | 9.54584 | 8832 ft | 331 kts | 210° |
| 2026-05-07 20:18 | 48.80482 | 9.52893 | 8029 ft | 335 kts | 210° |
| 2026-05-07 20:18 | 48.78429 | 9.51177 | 7235 ft | 338 kts | 210° |
| 2026-05-07 20:18 | 48.76380 | 9.49394 | 6472 ft | 340 kts | 215° |
| 2026-05-07 20:19 | 48.74611 | 9.47033 | 5673 ft | 340 kts | 230° |
| 2026-05-07 20:19 | 48.73300 | 9.44062 | 4885 ft | 340 kts | 244° |
| 2026-05-07 20:19 | 48.72718 | 9.41873 | 4393 ft | 339 kts | 253° |
| 2026-05-07 20:19 | 48.72071 | 9.38516 | 4141 ft | 323 kts | 254° |
| 2026-05-07 20:20 | 48.71463 | 9.35338 | 4068 ft | 304 kts | 254° |
| 2026-05-07 20:20 | 48.70885 | 9.32297 | 3268 ft | 307 kts | 254° |
| 2026-05-07 20:20 | 48.70248 | 9.29039 | 1869 ft | 334 kts | 254° |
| 2026-05-07 20:20 | 48.69617 | 9.25691 | 1357 ft | 327 kts | 255° |
| 2026-05-07 20:21 | 48.69049 | 9.22530 | 1390 ft | 286 kts | 254° |
| 2026-05-07 20:21 | 48.68464 | 9.19674 | 1979 ft | 298 kts | 253° |
| 2026-05-07 20:21 | 48.67839 | 9.16617 | 3114 ft | 312 kts | 253° |
| 2026-05-07 20:21 | 48.67207 | 9.13321 | 3732 ft | 341 kts | 254° |
| 2026-05-07 20:22 | 48.66549 | 9.09699 | 3988 ft | 373 kts | 255° |
| 2026-05-07 20:22 | 48.65916 | 9.05969 | 4584 ft | 344 kts | 256° |
| 2026-05-07 20:22 | 48.65663 | 9.02576 | 4606 ft | 319 kts | 277° |
| 2026-05-07 20:22 | 48.66437 | 8.99607 | 4608 ft | 296 kts | 308° |
| 2026-05-07 20:23 | 48.68007 | 8.97827 | 4604 ft | 275 kts | 339° |
| 2026-05-07 20:23 | 48.69804 | 8.97186 | 4605 ft | 256 kts | 353° |
| 2026-05-07 20:23 | 48.71511 | 8.96876 | 4604 ft | 239 kts | 353° |
| 2026-05-07 20:23 | 48.73102 | 8.96606 | 4608 ft | 222 kts | 357° |
| 2026-05-07 20:24 | 48.74560 | 8.96975 | 4603 ft | 208 kts | 22° |
| 2026-05-07 20:24 | 48.75762 | 8.98147 | 4607 ft | 206 kts | 45° |
| 2026-05-07 20:24 | 48.76606 | 8.99903 | 4611 ft | 207 kts | 57° |
| 2026-05-07 20:24 | 48.77403 | 9.01768 | 4617 ft | 225 kts | 56° |
| 2026-05-07 20:25 | 48.78340 | 9.03934 | 4614 ft | 259 kts | 56° |
| 2026-05-07 20:25 | 48.79346 | 9.06257 | 4607 ft | 265 kts | 56° |
| 2026-05-07 20:25 | 48.80361 | 9.08601 | 4605 ft | 266 kts | 56° |
| 2026-05-07 20:25 | 48.81378 | 9.10952 | 4607 ft | 267 kts | 56° |
| 2026-05-07 20:26 | 48.82397 | 9.13305 | 4606 ft | 267 kts | 56° |
| 2026-05-07 20:26 | 48.83418 | 9.15663 | 4607 ft | 267 kts | 56° |
| 2026-05-07 20:26 | 48.84421 | 9.17986 | 4607 ft | 267 kts | 56° |
| 2026-05-07 20:26 | 48.85435 | 9.20342 | 4606 ft | 267 kts | 56° |
| 2026-05-07 20:27 | 48.86448 | 9.22705 | 4603 ft | 267 kts | 56° |
| 2026-05-07 20:27 | 48.87400 | 9.25121 | 4600 ft | 267 kts | 66° |
| 2026-05-07 20:27 | 48.88119 | 9.27723 | 4606 ft | 267 kts | 64° |
| 2026-05-07 20:27 | 48.88958 | 9.30242 | 4605 ft | 267 kts | 62° |
| 2026-05-07 20:28 | 48.89815 | 9.32746 | 4606 ft | 267 kts | 62° |
| 2026-05-07 20:28 | 48.90674 | 9.35248 | 4604 ft | 267 kts | 62° |
| 2026-05-07 20:28 | 48.91534 | 9.37759 | 4603 ft | 267 kts | 63° |
| 2026-05-07 20:28 | 48.92061 | 9.40452 | 4601 ft | 267 kts | 86° |
| 2026-05-07 20:29 | 48.91818 | 9.43235 | 4599 ft | 268 kts | 111° |
| 2026-05-07 20:29 | 48.90825 | 9.45605 | 4603 ft | 267 kts | 136° |
| 2026-05-07 20:29 | 48.89274 | 9.47131 | 4437 ft | 267 kts | 161° |
| 2026-05-07 20:29 | 48.87474 | 9.47685 | 4362 ft | 265 kts | 172° |
| 2026-05-07 20:30 | 48.85644 | 9.48128 | 4298 ft | 266 kts | 171° |
| 2026-05-07 20:30 | 48.83827 | 9.48582 | 4234 ft | 260 kts | 171° |
| 2026-05-07 20:30 | 48.82097 | 9.49020 | 4152 ft | 245 kts | 171° |
| 2026-05-07 20:30 | 48.80457 | 9.49440 | 4042 ft | 233 kts | 171° |
| 2026-05-07 20:31 | 48.78911 | 9.49834 | 4000 ft | 221 kts | 171° |
| 2026-05-07 20:31 | 48.77433 | 9.50108 | 3998 ft | 208 kts | 181° |
| 2026-05-07 20:31 | 48.76081 | 9.49757 | 4017 ft | 188 kts | 200° |
| 2026-05-07 20:31 | 48.74976 | 9.48893 | 3997 ft | 171 kts | 217° |
| 2026-05-07 20:32 | 48.74151 | 9.47717 | 3993 ft | 156 kts | 232° |
| 2026-05-07 20:32 | 48.73597 | 9.46385 | 4024 ft | 147 kts | 245° |
| 2026-05-07 20:32 | 48.73252 | 9.44883 | 3938 ft | 156 kts | 255° |
| 2026-05-07 20:32 | 48.72957 | 9.43289 | 3767 ft | 157 kts | 255° |
| 2026-05-07 20:33 | 48.72672 | 9.41716 | 3565 ft | 156 kts | 256° |
| 2026-05-07 20:33 | 48.72396 | 9.40134 | 3365 ft | 155 kts | 256° |
| 2026-05-07 20:33 | 48.72087 | 9.38604 | 3140 ft | 149 kts | 254° |
| 2026-05-07 20:33 | 48.71794 | 9.37114 | 2913 ft | 147 kts | 255° |
| 2026-05-07 20:34 | 48.71525 | 9.35623 | 2727 ft | 144 kts | 255° |
| 2026-05-07 20:34 | 48.71262 | 9.34198 | 2529 ft | 138 kts | 255° |
| 2026-05-07 20:34 | 48.70989 | 9.32825 | 2311 ft | 135 kts | 252° |
| 2026-05-07 20:34 | 48.70718 | 9.31466 | 2173 ft | 135 kts | 253° |
| 2026-05-07 20:35 | 48.70483 | 9.30094 | 2000 ft | 135 kts | 257° |
| 2026-05-07 20:35 | 48.70229 | 9.28735 | 1835 ft | 134 kts | 252° |
| 2026-05-07 20:35 | 48.69962 | 9.27378 | 1647 ft | 135 kts | 253° |
| 2026-05-07 20:35 | 48.69708 | 9.26023 | 1435 ft | 133 kts | 256° |
| 2026-05-07 20:36 | 48.69455 | 9.24677 | 1268 ft | 133 kts | 255° |
| 2026-05-07 20:36 | 48.69213 | 9.23398 | 1209 ft | 111 kts | 254° |
| 2026-05-07 20:36 | 48.69030 | 9.22419 | 1229 ft | 84 kts | 254° |
| 2026-05-07 20:36 | 48.68945 | 9.21783 | 1246 ft | 50 kts | 274° |
| 2026-05-07 20:37 | 48.68975 | 9.21557 | 1257 ft | 0 kts | 284° |
| 2026-05-07 20:38 | 48.68991 | 9.21466 | 1265 ft | 23 kts | 286° |
| 2026-05-07 20:38 | 48.68966 | 9.21153 | 1269 ft | 38 kts | 253° |
| 2026-05-07 20:39 | 48.68887 | 9.20708 | 1276 ft | 45 kts | 252° |
| 2026-05-07 20:39 | 48.68799 | 9.20276 | 1286 ft | 41 kts | 255° |
| 2026-05-07 20:39 | 48.68763 | 9.20002 | 1292 ft | 21 kts | 291° |
| 2026-05-07 20:39 | 48.68864 | 9.19879 | 1301 ft | 17 kts | 330° |
| 2026-05-07 20:40 | 48.68880 | 9.19761 | 1306 ft | 10 kts | 256° |
| 2026-05-07 20:40 | 48.68855 | 9.19625 | 1309 ft | 21 kts | 253° |
| 2026-05-07 20:40 | 48.68816 | 9.19437 | 1312 ft | 21 kts | 253° |
| 2026-05-07 20:40 | 48.68856 | 9.19329 | 1315 ft | 0 kts | 337° |